createdAt,value
2018-05-31T11:21:28.443Z,24.10
2018-05-31T11:22:28.412Z,24.14
2018-05-31T11:23:28.398Z,23.98
2018-05-31T11:24:28.379Z,24.02
2018-05-31T11:25:28.288Z,23.84
2018-05-31T11:26:28.234Z,23.93
2018-05-31T11:27:28.233Z,23.91
2018-05-31T11:28:28.201Z,23.91
2018-05-31T11:29:28.166Z,23.96
2018-05-31T11:30:28.158Z,24.14
2018-05-31T11:31:28.077Z,24.13
2018-05-31T11:32:28.043Z,24.16
2018-05-31T11:33:28.016Z,24.14
2018-05-31T11:34:27.987Z,24.20
2018-05-31T11:35:27.955Z,24.16
2018-05-31T11:36:27.929Z,24.17
2018-05-31T11:37:27.909Z,24.13
2018-05-31T11:38:27.880Z,24.14
2018-05-31T11:39:27.846Z,24.11
2018-05-31T11:40:27.812Z,24.13
2018-05-31T11:41:27.781Z,24.11
2018-05-31T11:42:27.756Z,24.14
2018-05-31T11:43:27.725Z,24.18
2018-05-31T11:44:27.704Z,24.28
2018-05-31T11:45:27.673Z,24.30
2018-05-31T11:46:27.644Z,24.30
2018-05-31T11:47:27.640Z,24.42
2018-05-31T11:48:27.593Z,24.26
2018-05-31T11:49:27.568Z,24.38
2018-05-31T11:50:27.534Z,24.24
2018-05-31T11:51:27.506Z,24.18
2018-05-31T11:52:27.477Z,24.28
2018-05-31T11:53:27.444Z,24.17
2018-05-31T11:54:27.413Z,24.16
2018-05-31T11:55:27.385Z,24.14
2018-05-31T11:56:27.377Z,24.16
2018-05-31T11:57:27.331Z,24.14
2018-05-31T11:58:27.304Z,24.29
2018-05-31T11:59:27.275Z,24.28
2018-05-31T12:00:27.269Z,24.43
2018-05-31T12:01:27.217Z,24.32
2018-05-31T12:02:27.189Z,24.28
2018-05-31T12:03:27.157Z,24.35
2018-05-31T12:04:27.136Z,24.39
2018-05-31T12:05:27.105Z,24.55
2018-05-31T12:06:27.117Z,24.53
2018-05-31T12:07:27.046Z,24.57
2018-05-31T12:08:27.052Z,24.76
2018-05-31T12:09:26.994Z,24.91
2018-05-31T12:10:26.962Z,24.89
2018-05-31T12:11:26.938Z,24.95
2018-05-31T12:12:26.903Z,24.95
2018-05-31T12:13:26.878Z,25.01
2018-05-31T12:14:26.853Z,24.81
2018-05-31T12:15:26.824Z,24.78
2018-05-31T12:16:26.795Z,24.88
2018-05-31T12:17:26.806Z,25.01
2018-05-31T12:18:26.741Z,25.16
2018-05-31T12:19:26.722Z,25.23
2018-05-31T12:20:26.682Z,25.47
2018-05-31T12:21:26.653Z,25.68
2018-05-31T12:22:26.629Z,25.73
2018-05-31T12:23:26.599Z,25.83
2018-05-31T12:24:26.566Z,25.93
2018-05-31T12:25:26.541Z,25.98
2018-05-31T12:26:26.517Z,25.95
2018-05-31T12:27:26.482Z,25.81
2018-05-31T12:28:26.479Z,25.88
2018-05-31T12:29:26.480Z,25.80
2018-05-31T12:30:26.408Z,25.77
2018-05-31T12:31:26.378Z,25.93
2018-05-31T12:32:26.392Z,25.98
2018-05-31T12:33:26.374Z,25.99
2018-05-31T12:34:26.540Z,26.13
2018-05-31T12:35:26.463Z,26.10
2018-05-31T12:36:26.323Z,26.16
2018-05-31T12:37:29.013Z,26.16
2018-05-31T12:40:14.693Z,26.29
2018-05-31T12:42:53.057Z,26.23
2018-05-31T12:44:02.270Z,26.26
2018-05-31T12:45:46.402Z,26.03
2018-05-31T12:46:47.013Z,26.19
2018-05-31T12:47:48.469Z,26.05
2018-05-31T12:48:46.241Z,26.19
2018-05-31T12:49:46.203Z,26.34
2018-05-31T12:50:46.197Z,26.51
2018-05-31T12:51:47.889Z,26.59
2018-05-31T12:52:46.105Z,26.65
2018-05-31T12:53:46.136Z,26.71
2018-05-31T12:56:08.502Z,26.80
2018-05-31T12:57:08.434Z,26.80
2018-05-31T12:58:08.405Z,26.74
2018-05-31T12:59:08.379Z,26.73
2018-05-31T13:00:09.173Z,26.77
2018-05-31T13:01:08.324Z,26.78
2018-05-31T13:02:08.370Z,26.80
2018-05-31T13:03:08.311Z,26.84
2018-05-31T13:04:08.263Z,26.89
2018-05-31T13:05:08.210Z,26.71
2018-05-31T13:06:08.196Z,26.65
2018-05-31T13:07:08.212Z,26.66
2018-05-31T13:08:08.179Z,26.56
2018-05-31T13:09:08.110Z,26.51
2018-05-31T13:10:08.153Z,26.48
2018-05-31T13:11:08.223Z,26.51
2018-05-31T13:12:08.088Z,26.44
2018-05-31T13:13:07.995Z,26.34
2018-05-31T13:14:08.051Z,26.40
2018-05-31T13:15:08.004Z,26.38
2018-05-31T13:16:07.981Z,26.48
2018-05-31T13:17:07.946Z,26.65
2018-05-31T13:18:07.999Z,26.62
2018-05-31T13:19:07.923Z,26.77
2018-05-31T13:20:07.986Z,26.90
2018-05-31T13:21:07.817Z,26.99
2018-05-31T13:22:07.842Z,26.96
2018-05-31T13:23:07.776Z,26.93
2018-05-31T13:24:10.150Z,26.90
2018-05-31T13:25:07.682Z,26.85
2018-05-31T13:26:07.648Z,26.95
2018-05-31T13:27:07.619Z,26.88
2018-05-31T13:28:07.603Z,26.96
2018-05-31T13:29:07.569Z,27.08
2018-05-31T13:30:07.537Z,27.14
2018-05-31T13:31:07.512Z,27.27
2018-05-31T13:32:07.489Z,27.30
2018-05-31T13:33:07.466Z,27.32
2018-05-31T13:34:07.460Z,27.30
2018-05-31T13:35:07.411Z,27.22
2018-05-31T13:36:07.381Z,27.26
2018-05-31T13:37:07.347Z,27.35
2018-05-31T13:38:07.324Z,27.33
2018-05-31T13:39:07.294Z,27.44
2018-05-31T13:40:07.279Z,27.44
2018-05-31T13:41:07.248Z,27.52
2018-05-31T13:42:07.221Z,27.49
2018-05-31T13:43:07.214Z,27.55
2018-05-31T13:44:07.160Z,27.58
2018-05-31T13:45:07.137Z,27.58
2018-05-31T13:46:07.117Z,27.48
2018-05-31T13:47:07.086Z,27.60
2018-05-31T13:48:07.055Z,27.63
2018-05-31T13:49:07.030Z,27.55
2018-05-31T13:50:07.011Z,27.52
2018-05-31T13:51:06.976Z,27.67
2018-05-31T13:52:06.957Z,27.54
2018-05-31T13:53:06.929Z,27.70
2018-05-31T13:54:06.902Z,27.74
2018-05-31T13:55:06.876Z,27.74
2018-05-31T13:56:06.846Z,27.70
2018-05-31T13:57:06.821Z,27.54
2018-05-31T13:58:06.794Z,27.55
2018-05-31T13:59:06.766Z,27.74
2018-05-31T14:00:06.744Z,27.71
2018-05-31T14:01:06.716Z,27.77
2018-05-31T14:02:06.691Z,27.80
2018-05-31T14:03:06.657Z,27.82
2018-05-31T14:04:06.640Z,27.85
2018-05-31T14:05:06.612Z,27.86
2018-05-31T14:06:06.587Z,27.67
2018-05-31T14:07:06.561Z,27.39
2018-05-31T14:08:06.529Z,27.25
2018-05-31T14:09:06.502Z,27.10
2018-05-31T14:10:06.480Z,27.11
2018-05-31T14:11:06.447Z,26.97
2018-05-31T14:12:06.433Z,27.08
2018-05-31T14:13:06.397Z,26.96
2018-05-31T14:14:06.375Z,26.96
2018-05-31T14:15:06.356Z,27.03
2018-05-31T14:16:06.317Z,26.95
2018-05-31T14:17:06.291Z,26.96
2018-05-31T14:18:06.270Z,26.84
2018-05-31T14:19:06.244Z,26.71
2018-05-31T14:20:06.212Z,26.83
2018-05-31T14:21:06.188Z,26.80
2018-05-31T14:22:06.166Z,26.80
2018-05-31T14:23:06.134Z,26.90
2018-05-31T14:24:06.135Z,26.89
2018-05-31T14:25:06.086Z,26.88
2018-05-31T14:26:06.056Z,26.81
2018-05-31T14:27:06.032Z,27.00
2018-05-31T14:28:06.005Z,26.96
2018-05-31T14:29:05.976Z,26.96
2018-05-31T14:30:05.949Z,26.97
2018-05-31T14:31:05.921Z,27.11
2018-05-31T14:32:05.899Z,27.22
2018-05-31T14:33:05.873Z,27.20
2018-05-31T14:34:05.843Z,27.12
2018-05-31T14:35:05.821Z,26.96
2018-05-31T14:36:05.798Z,26.97
2018-05-31T14:37:05.765Z,27.07
2018-05-31T14:38:05.740Z,27.26
2018-05-31T14:39:05.715Z,27.32
2018-05-31T14:40:05.682Z,27.35
2018-05-31T14:41:05.656Z,27.37
2018-05-31T14:42:05.629Z,27.36
2018-05-31T14:43:05.603Z,27.47
2018-05-31T14:44:05.581Z,27.44
2018-05-31T14:45:05.555Z,27.44
2018-05-31T14:46:05.528Z,27.52
2018-05-31T14:47:05.503Z,27.47
2018-05-31T14:48:05.468Z,27.47
2018-05-31T14:49:05.498Z,27.32
2018-05-31T14:50:05.420Z,27.32
2018-05-31T14:51:05.395Z,27.25
2018-05-31T14:52:05.367Z,27.32
2018-05-31T14:53:05.337Z,27.29
2018-05-31T14:54:05.313Z,27.29
2018-05-31T14:55:05.284Z,27.30
2018-05-31T14:56:05.262Z,27.44
2018-05-31T14:57:05.260Z,27.44
2018-05-31T14:58:05.208Z,27.36
2018-05-31T14:59:05.182Z,27.21
2018-05-31T15:00:05.149Z,27.20
2018-05-31T15:01:05.126Z,27.22
2018-05-31T15:02:05.104Z,27.20
2018-05-31T15:03:05.073Z,27.05
2018-05-31T15:04:05.083Z,27.12
2018-05-31T15:05:05.024Z,26.95
2018-05-31T15:06:04.995Z,26.83
2018-05-31T15:07:04.963Z,26.89
2018-05-31T15:08:04.945Z,26.78
2018-05-31T15:09:04.915Z,27.10
2018-05-31T15:10:04.977Z,27.20
2018-05-31T15:11:04.922Z,27.25
2018-05-31T15:12:04.897Z,27.18
2018-05-31T15:13:04.848Z,27.10
2018-05-31T15:14:04.827Z,26.97
2018-05-31T15:15:04.813Z,26.93
2018-05-31T15:16:04.796Z,26.66
2018-05-31T15:17:04.744Z,26.63
2018-05-31T15:18:04.730Z,26.43
2018-05-31T15:19:04.716Z,26.41
2018-05-31T15:20:04.664Z,26.31
2018-05-31T15:21:04.637Z,26.36
2018-05-31T15:22:04.635Z,26.25
2018-05-31T15:23:04.593Z,26.28
2018-05-31T15:24:04.563Z,26.25
2018-05-31T15:25:04.522Z,26.15
2018-05-31T15:26:04.507Z,26.16
2018-05-31T15:27:04.502Z,26.18
2018-05-31T15:28:04.462Z,26.23
2018-05-31T15:29:04.423Z,26.21
2018-05-31T15:30:04.400Z,26.25
2018-05-31T15:31:04.373Z,26.31
2018-05-31T15:32:04.356Z,26.19
2018-05-31T15:33:04.340Z,26.25
2018-05-31T15:34:04.279Z,26.18
2018-05-31T15:35:04.256Z,26.13
2018-05-31T15:36:04.317Z,26.16
2018-05-31T15:37:04.210Z,26.05
2018-05-31T15:38:04.198Z,26.00
2018-05-31T15:39:04.158Z,25.95
2018-05-31T15:40:04.124Z,26.16
2018-05-31T15:41:04.377Z,26.19
2018-05-31T15:42:04.113Z,26.10
2018-05-31T15:43:04.007Z,26.26
2018-05-31T15:44:03.976Z,26.36
2018-05-31T15:45:03.948Z,26.34
2018-05-31T15:46:03.921Z,26.38
2018-05-31T15:47:03.898Z,26.51
2018-05-31T15:48:03.871Z,26.51
2018-05-31T15:49:03.843Z,26.63
2018-05-31T15:50:03.817Z,26.66
2018-05-31T15:51:03.789Z,26.70
2018-05-31T15:52:03.756Z,26.66
2018-05-31T15:53:03.741Z,26.77
2018-05-31T15:54:03.707Z,26.73
2018-05-31T15:55:03.683Z,26.80
2018-05-31T15:56:03.652Z,26.53
2018-05-31T15:57:03.622Z,26.33
2018-05-31T15:58:03.596Z,26.31
2018-05-31T15:59:03.567Z,26.10
2018-05-31T16:00:03.546Z,26.05
2018-05-31T16:01:03.518Z,26.15
2018-05-31T16:02:03.490Z,26.06
2018-05-31T16:03:03.463Z,25.99
2018-05-31T16:04:03.452Z,26.05
2018-05-31T16:05:03.409Z,25.96
2018-05-31T16:06:03.379Z,26.05
2018-05-31T16:07:03.350Z,26.05
2018-05-31T16:08:03.332Z,26.03
2018-05-31T16:09:03.299Z,26.19
2018-05-31T16:10:03.269Z,26.25
2018-05-31T16:11:03.240Z,26.36
2018-05-31T16:12:03.220Z,26.37
2018-05-31T16:13:03.190Z,26.13
2018-05-31T16:14:03.165Z,25.99
2018-05-31T16:15:03.140Z,25.96
2018-05-31T16:16:03.104Z,25.91
2018-05-31T16:17:03.084Z,25.91
2018-05-31T16:18:03.054Z,25.73
2018-05-31T16:19:03.022Z,25.65
2018-05-31T16:20:03.011Z,25.59
2018-05-31T16:21:02.974Z,25.50
2018-05-31T16:22:02.945Z,25.50
2018-05-31T16:23:02.921Z,25.31
2018-05-31T16:24:02.887Z,25.29
2018-05-31T16:25:02.861Z,25.22
2018-05-31T16:26:02.837Z,25.26
2018-05-31T16:27:02.810Z,25.23
2018-05-31T16:28:02.780Z,25.16
2018-05-31T16:29:02.753Z,25.06
2018-05-31T16:30:02.726Z,25.23
2018-05-31T16:31:02.697Z,25.33
2018-05-31T16:32:02.674Z,25.41
2018-05-31T16:33:02.643Z,25.44
2018-05-31T16:34:02.618Z,25.55
2018-05-31T16:35:02.603Z,25.66
2018-05-31T16:36:02.557Z,25.75
2018-05-31T16:37:02.538Z,25.72
2018-05-31T16:38:02.504Z,25.80
2018-05-31T16:39:02.469Z,25.88
2018-05-31T16:40:02.453Z,25.68
2018-05-31T16:41:02.423Z,25.66
2018-05-31T16:42:02.394Z,25.68
2018-05-31T16:43:02.363Z,25.69
2018-05-31T16:44:02.342Z,25.73
2018-05-31T16:45:02.312Z,25.60
2018-05-31T16:46:02.301Z,25.58
2018-05-31T16:47:02.259Z,25.53
2018-05-31T16:48:02.226Z,25.47
2018-05-31T16:49:02.200Z,25.48
2018-05-31T16:50:02.172Z,25.41
2018-05-31T16:51:02.142Z,25.33
2018-05-31T16:52:02.121Z,25.43
2018-05-31T16:53:02.092Z,25.38
2018-05-31T16:54:02.068Z,25.48
2018-05-31T16:55:02.040Z,25.50
2018-05-31T16:56:02.003Z,25.40
2018-05-31T16:57:01.980Z,25.43
2018-05-31T16:58:01.954Z,25.40
2018-05-31T16:59:01.928Z,25.41
2018-05-31T17:00:01.893Z,25.28
2018-05-31T17:01:01.875Z,25.28
2018-05-31T17:02:01.843Z,25.28
2018-05-31T17:03:01.811Z,25.26
2018-05-31T17:04:01.790Z,25.36
2018-05-31T17:05:01.760Z,25.29
2018-05-31T17:06:02.246Z,25.25
2018-05-31T17:07:01.707Z,25.22
2018-05-31T17:08:01.675Z,25.17
2018-05-31T17:09:01.646Z,25.10
2018-05-31T17:10:01.621Z,24.96
2018-05-31T17:11:01.625Z,24.96
2018-05-31T17:12:01.566Z,24.95
2018-05-31T17:13:01.538Z,24.91
2018-05-31T17:14:01.508Z,24.91
2018-05-31T17:15:01.553Z,24.84
2018-05-31T17:16:01.454Z,24.74
2018-05-31T17:17:01.428Z,24.73
2018-05-31T17:18:01.398Z,24.65
2018-05-31T17:19:01.373Z,24.54
2018-05-31T17:20:01.338Z,24.57
2018-05-31T17:21:01.311Z,24.57
2018-05-31T17:22:01.284Z,24.54
2018-05-31T17:23:01.252Z,24.43
2018-05-31T17:24:01.232Z,24.42
2018-05-31T17:25:01.201Z,24.42
2018-05-31T17:26:01.169Z,24.36
2018-05-31T17:27:01.148Z,24.30
2018-05-31T17:28:01.113Z,24.36
2018-05-31T17:29:01.088Z,24.33
2018-05-31T17:30:01.062Z,24.29
2018-05-31T17:31:01.034Z,24.38
2018-05-31T17:32:01.006Z,24.23
2018-05-31T17:33:00.974Z,24.24
2018-05-31T17:34:00.950Z,24.38
2018-05-31T17:35:00.913Z,24.42
2018-05-31T17:36:00.894Z,24.47
2018-05-31T17:37:00.864Z,24.38
2018-05-31T17:38:00.849Z,24.45
2018-05-31T17:39:00.812Z,24.43
2018-05-31T17:40:00.776Z,24.38
2018-05-31T17:41:00.746Z,24.45
2018-05-31T17:42:00.721Z,24.36
2018-05-31T17:43:00.729Z,24.36
2018-05-31T17:44:00.667Z,24.42
2018-05-31T17:45:00.637Z,24.42
2018-05-31T17:46:00.607Z,24.45
2018-05-31T17:47:00.578Z,24.58
2018-05-31T17:48:00.556Z,24.47
2018-05-31T17:49:00.522Z,24.48
2018-05-31T17:50:00.497Z,24.43
2018-05-31T17:51:00.469Z,24.42
2018-05-31T17:52:00.436Z,24.45
2018-05-31T17:53:00.412Z,24.54
2018-05-31T17:54:00.384Z,24.54
2018-05-31T17:55:00.354Z,24.61
2018-05-31T17:56:00.319Z,24.60
2018-05-31T17:57:00.297Z,24.70
2018-05-31T17:58:00.269Z,24.69
2018-05-31T17:59:00.237Z,24.69
2018-05-31T18:00:00.214Z,24.68
2018-05-31T18:01:00.185Z,24.57
2018-05-31T18:02:00.153Z,24.54
2018-05-31T18:03:00.121Z,24.57
2018-05-31T18:04:00.102Z,24.58
2018-05-31T18:05:00.077Z,24.48
2018-05-31T18:06:00.045Z,24.57
2018-05-31T18:07:00.072Z,24.57
2018-05-31T18:08:00.287Z,24.57
2018-05-31T18:09:00.020Z,24.53
2018-05-31T18:09:59.959Z,24.50
2018-05-31T18:10:59.895Z,24.45
2018-05-31T18:11:59.876Z,24.54
2018-05-31T18:12:59.845Z,24.36
2018-05-31T18:13:59.817Z,24.39
2018-05-31T18:14:59.793Z,24.45
2018-05-31T18:15:59.755Z,24.39
2018-05-31T18:16:59.798Z,24.42
2018-05-31T18:17:59.727Z,24.40
2018-05-31T18:18:59.745Z,24.40
2018-05-31T18:19:59.689Z,24.47
2018-05-31T18:20:59.751Z,24.38
2018-05-31T18:21:59.658Z,24.43
2018-05-31T18:22:59.598Z,24.47
2018-05-31T18:23:59.623Z,24.40
2018-05-31T18:24:59.580Z,24.47
2018-05-31T18:25:59.596Z,24.61
2018-05-31T18:26:59.634Z,24.57
2018-05-31T18:27:59.528Z,24.55
2018-05-31T18:28:59.648Z,24.53
2018-05-31T18:29:59.404Z,24.55
2018-05-31T18:31:00.387Z,24.61
2018-05-31T18:31:59.525Z,24.73
2018-05-31T18:32:59.368Z,25.07
2018-05-31T18:33:59.288Z,25.17
2018-05-31T18:34:59.261Z,25.26
2018-05-31T18:35:59.266Z,25.36
2018-05-31T18:36:59.374Z,25.66
2018-05-31T18:37:59.237Z,25.87
2018-05-31T18:38:59.188Z,26.03
2018-05-31T18:39:59.382Z,26.18
2018-05-31T18:40:59.145Z,26.05
2018-05-31T18:41:59.118Z,25.90
2018-05-31T18:42:59.040Z,25.63
2018-05-31T18:43:59.052Z,25.53
2018-05-31T18:44:58.984Z,25.28
2018-05-31T18:45:58.974Z,25.13
2018-05-31T18:46:58.963Z,24.99
2018-05-31T18:47:58.915Z,24.78
2018-05-31T18:48:58.950Z,24.58
2018-05-31T18:49:58.850Z,24.60
2018-05-31T18:50:59.062Z,24.51
2018-05-31T18:51:58.880Z,24.42
2018-05-31T18:52:58.820Z,24.24
2018-05-31T18:53:58.863Z,24.26
2018-05-31T18:54:58.728Z,24.20
2018-05-31T18:55:58.692Z,24.16
2018-05-31T18:56:58.888Z,24.18
2018-05-31T18:57:58.886Z,24.14
2018-05-31T18:58:58.626Z,24.14
2018-05-31T18:59:58.574Z,24.10
2018-05-31T19:00:58.547Z,24.01
2018-05-31T19:01:58.504Z,24.10
2018-05-31T19:02:58.482Z,24.14
2018-05-31T19:03:58.465Z,24.14
2018-05-31T19:04:58.386Z,24.06
2018-05-31T19:05:58.355Z,24.01
2018-05-31T19:06:58.376Z,24.14
2018-05-31T19:07:58.305Z,24.11
2018-05-31T19:08:58.272Z,24.03
2018-05-31T19:09:58.276Z,24.20
2018-05-31T19:10:58.270Z,24.03
2018-05-31T19:11:58.246Z,24.06
2018-05-31T19:12:58.194Z,24.14
2018-05-31T19:13:58.182Z,24.05
2018-05-31T19:15:01.510Z,24.02
2018-05-31T19:15:58.156Z,24.01
2018-05-31T19:16:58.091Z,24.01
2018-05-31T19:17:58.132Z,23.99
2018-05-31T19:18:58.062Z,23.95
2018-05-31T19:19:57.999Z,23.93
2018-05-31T19:20:57.998Z,23.92
2018-05-31T19:21:58.117Z,23.92
2018-05-31T19:22:57.925Z,23.96
2018-05-31T19:23:57.886Z,23.88
2018-05-31T19:24:57.964Z,23.84
2018-05-31T19:25:57.860Z,23.91
2018-05-31T19:26:57.815Z,23.83
2018-05-31T19:27:57.887Z,23.83
2018-05-31T19:28:57.763Z,23.87
2018-05-31T19:29:57.706Z,23.78
2018-05-31T19:30:57.713Z,23.74
2018-05-31T19:31:57.654Z,23.68
2018-05-31T19:32:57.625Z,23.69
2018-05-31T19:33:57.608Z,23.63
2018-05-31T19:34:57.623Z,23.58
2018-05-31T19:35:58.300Z,23.63
2018-05-31T19:36:57.524Z,23.51
2018-05-31T19:37:57.531Z,23.48
2018-05-31T19:38:57.453Z,23.47
2018-05-31T19:39:57.456Z,23.55
2018-05-31T19:40:57.471Z,23.46
2018-05-31T19:41:57.371Z,23.41
2018-05-31T19:42:57.874Z,23.44
2018-05-31T19:43:57.301Z,23.48
2018-05-31T19:44:57.290Z,23.43
2018-05-31T19:45:57.263Z,23.31
2018-05-31T19:46:57.255Z,23.44
2018-05-31T19:47:57.198Z,23.31
2018-05-31T19:48:57.183Z,23.32
2018-05-31T19:49:57.143Z,23.28
2018-05-31T19:50:57.146Z,23.24
2018-05-31T19:51:57.098Z,23.21
2018-05-31T19:52:57.352Z,23.23
2018-05-31T19:53:57.083Z,23.10
2018-05-31T19:54:57.011Z,23.13
2018-05-31T19:55:57.096Z,23.15
2018-05-31T19:56:57.119Z,23.09
2018-05-31T19:57:57.035Z,23.13
2018-05-31T19:58:57.815Z,23.08
2018-05-31T19:59:56.929Z,23.10
2018-05-31T20:00:56.940Z,23.13
2018-05-31T20:01:56.809Z,23.00
2018-05-31T20:02:57.107Z,23.05
2018-05-31T20:03:56.753Z,23.05
2018-05-31T20:04:57.320Z,22.98
2018-05-31T20:05:56.767Z,23.00
2018-05-31T20:06:56.652Z,23.03
2018-05-31T20:07:56.650Z,22.93
2018-05-31T20:08:56.647Z,22.96
2018-05-31T20:09:56.588Z,22.91
2018-05-31T20:10:56.564Z,22.85
2018-05-31T20:11:56.515Z,22.87
2018-05-31T20:12:56.472Z,22.81
2018-05-31T20:13:56.448Z,22.87
2018-05-31T20:14:56.418Z,22.78
2018-05-31T20:15:56.383Z,22.72
2018-05-31T20:16:56.476Z,22.76
2018-05-31T20:17:56.502Z,22.81
2018-05-31T20:18:56.352Z,22.81
2018-05-31T20:19:56.298Z,22.75
2018-05-31T20:20:56.273Z,22.76
2018-05-31T20:21:56.319Z,22.76
2018-05-31T20:22:56.278Z,22.73
2018-05-31T20:23:56.162Z,22.72
2018-05-31T20:24:57.024Z,22.68
2018-05-31T20:25:56.247Z,22.69
2018-05-31T20:26:56.208Z,22.70
2018-05-31T20:27:56.084Z,22.68
2018-05-31T20:28:56.023Z,22.63
2018-05-31T20:29:56.156Z,22.66
2018-05-31T20:30:56.007Z,22.35
2018-05-31T20:31:55.948Z,22.32
2018-05-31T20:32:55.910Z,22.26
2018-05-31T20:33:56.345Z,22.26
2018-05-31T20:34:55.900Z,22.25
2018-05-31T20:35:55.756Z,22.28
2018-05-31T20:36:55.739Z,22.25
2018-05-31T20:37:55.699Z,22.22
2018-05-31T20:38:55.667Z,22.23
2018-05-31T20:39:55.647Z,22.20
2018-05-31T20:40:55.619Z,22.08
2018-05-31T20:41:55.580Z,21.99
2018-05-31T20:42:55.552Z,21.91
2018-05-31T20:43:55.526Z,21.99
2018-05-31T20:44:55.496Z,21.99
2018-05-31T20:45:55.465Z,21.96
2018-05-31T20:46:55.437Z,21.96
2018-05-31T20:47:55.401Z,21.99
2018-05-31T20:48:55.376Z,22.02
2018-05-31T20:49:55.347Z,22.08
2018-05-31T20:50:55.315Z,22.07
2018-05-31T20:51:55.306Z,22.13
2018-05-31T20:52:55.259Z,22.17
2018-05-31T20:53:55.238Z,22.15
2018-05-31T20:54:55.202Z,22.11
2018-05-31T20:55:55.168Z,22.13
2018-05-31T20:56:55.137Z,22.07
2018-05-31T20:57:55.111Z,22.00
2018-05-31T20:58:55.096Z,22.13
2018-05-31T20:59:55.091Z,22.14
2018-05-31T21:00:55.020Z,22.15
2018-05-31T21:01:54.989Z,22.22
2018-05-31T21:02:54.960Z,22.26
2018-05-31T21:03:54.933Z,22.29
2018-05-31T21:04:54.901Z,22.22
2018-05-31T21:05:54.871Z,22.29
2018-05-31T21:06:54.846Z,22.26
2018-05-31T21:07:54.816Z,22.29
2018-05-31T21:08:54.782Z,22.29
2018-05-31T21:09:54.751Z,22.29
2018-05-31T21:10:54.720Z,22.32
2018-05-31T21:11:54.787Z,22.32
2018-05-31T21:12:54.664Z,22.32
2018-05-31T21:13:54.634Z,22.32
2018-05-31T21:14:54.610Z,22.29
2018-05-31T21:15:54.618Z,22.39
2018-05-31T21:16:54.551Z,22.30
2018-05-31T21:17:54.526Z,22.43
2018-05-31T21:18:54.497Z,22.44
2018-05-31T21:19:54.457Z,22.36
2018-05-31T21:20:54.425Z,22.36
2018-05-31T21:21:54.401Z,22.38
2018-05-31T21:22:54.382Z,22.35
2018-05-31T21:23:54.340Z,22.33
2018-05-31T21:24:54.308Z,22.35
2018-05-31T21:25:54.284Z,22.39
2018-05-31T21:26:54.253Z,22.32
2018-05-31T21:27:54.222Z,22.41
2018-05-31T21:28:54.188Z,22.32
2018-05-31T21:29:54.159Z,22.35
2018-05-31T21:30:54.136Z,22.41
2018-05-31T21:31:54.095Z,22.35
2018-05-31T21:32:54.069Z,22.36
2018-05-31T21:33:54.040Z,22.33
2018-05-31T21:34:54.004Z,22.36
2018-05-31T21:35:53.979Z,22.35
2018-05-31T21:36:53.949Z,22.33
2018-05-31T21:37:53.919Z,22.33
2018-05-31T21:38:53.894Z,22.35
2018-05-31T21:39:53.857Z,22.29
2018-05-31T21:40:53.831Z,22.29
2018-05-31T21:41:53.798Z,22.26
2018-05-31T21:42:53.786Z,22.26
2018-05-31T21:43:53.770Z,22.30
2018-05-31T21:44:53.713Z,22.23
2018-05-31T21:45:53.687Z,22.22
2018-05-31T21:46:53.650Z,22.18
2018-05-31T21:47:53.633Z,22.22
2018-05-31T21:48:53.610Z,22.13
2018-05-31T21:49:53.932Z,22.08
2018-05-31T21:50:53.533Z,22.11
2018-05-31T21:51:53.497Z,21.98
2018-05-31T21:52:53.469Z,21.92
2018-05-31T21:53:53.439Z,21.95
2018-05-31T21:54:53.421Z,21.92
2018-05-31T21:55:53.385Z,21.89
2018-05-31T21:56:53.355Z,21.82
2018-05-31T21:57:53.350Z,21.75
2018-05-31T21:58:53.294Z,21.72
2018-05-31T21:59:53.261Z,21.69
2018-05-31T22:00:53.231Z,21.72
2018-05-31T22:01:53.207Z,21.70
2018-05-31T22:02:53.174Z,21.64
2018-05-31T22:03:53.138Z,21.67
2018-05-31T22:04:53.112Z,21.72
2018-05-31T22:05:53.091Z,21.73
2018-05-31T22:06:53.049Z,21.73
2018-05-31T22:07:53.024Z,21.75
2018-05-31T22:08:52.993Z,21.66
2018-05-31T22:09:52.964Z,21.80
2018-05-31T22:10:52.931Z,21.67
2018-05-31T22:11:52.904Z,21.72
2018-05-31T22:12:52.870Z,21.70
2018-05-31T22:13:52.839Z,21.72
2018-05-31T22:14:52.815Z,21.72
2018-05-31T22:15:52.789Z,21.70
2018-05-31T22:16:52.752Z,21.70
2018-05-31T22:17:52.718Z,21.70
2018-05-31T22:18:52.690Z,21.72
2018-05-31T22:19:52.662Z,21.73
2018-05-31T22:20:52.631Z,21.75
2018-05-31T22:21:52.606Z,21.69
2018-05-31T22:22:52.572Z,21.72
2018-05-31T22:23:52.550Z,21.73
2018-05-31T22:24:52.517Z,21.73
2018-05-31T22:25:52.479Z,21.70
2018-05-31T22:26:52.446Z,21.72
2018-05-31T22:27:52.423Z,21.83
2018-05-31T22:28:52.391Z,21.69
2018-05-31T22:29:52.362Z,21.69
2018-05-31T22:30:52.331Z,21.67
2018-05-31T22:31:52.301Z,21.73
2018-05-31T22:32:52.264Z,21.73
2018-05-31T22:33:52.242Z,21.67
2018-05-31T22:34:52.210Z,21.72
2018-05-31T22:35:52.179Z,21.66
2018-05-31T22:36:52.146Z,21.57
2018-05-31T22:37:52.120Z,21.57
2018-05-31T22:38:52.086Z,21.55
2018-05-31T22:39:52.061Z,21.60
2018-05-31T22:40:52.032Z,21.57
2018-05-31T22:41:52.005Z,21.61
2018-05-31T22:42:51.968Z,21.61
2018-05-31T22:43:51.940Z,21.64
2018-05-31T22:44:51.904Z,21.62
2018-05-31T22:45:51.877Z,21.58
2018-05-31T22:46:51.847Z,21.60
2018-05-31T22:47:51.820Z,21.69
2018-05-31T22:48:51.791Z,21.69
2018-05-31T22:49:51.753Z,21.73
2018-05-31T22:50:51.727Z,21.69
2018-05-31T22:51:51.694Z,21.72
2018-05-31T22:52:51.671Z,21.66
2018-05-31T22:53:51.641Z,21.70
2018-05-31T22:54:51.612Z,21.60
2018-05-31T22:55:51.577Z,21.70
2018-05-31T22:56:51.545Z,21.67
2018-05-31T22:57:51.512Z,21.77
2018-05-31T22:58:51.485Z,21.66
2018-05-31T22:59:51.459Z,21.64
2018-05-31T23:00:51.428Z,21.75
2018-05-31T23:01:51.400Z,21.62
2018-05-31T23:02:51.369Z,21.58
2018-05-31T23:03:51.336Z,21.64
2018-05-31T23:04:51.306Z,21.67
2018-05-31T23:05:51.285Z,21.66
2018-05-31T23:06:51.247Z,21.55
2018-05-31T23:07:51.213Z,21.62
2018-05-31T23:08:51.181Z,21.60
2018-05-31T23:09:51.152Z,21.58
2018-05-31T23:10:51.122Z,21.58
2018-05-31T23:11:51.095Z,21.58
2018-05-31T23:12:51.065Z,21.62
2018-05-31T23:13:51.038Z,21.61
2018-05-31T23:14:51.005Z,21.61
2018-05-31T23:15:50.974Z,21.50
2018-05-31T23:16:50.942Z,21.52
2018-05-31T23:17:50.911Z,21.61
2018-05-31T23:18:50.881Z,21.43
2018-05-31T23:19:50.854Z,21.62
2018-05-31T23:20:50.823Z,21.55
2018-05-31T23:21:50.789Z,21.64
2018-05-31T23:22:50.760Z,21.61
2018-05-31T23:23:50.733Z,21.60
2018-05-31T23:24:50.705Z,21.61
2018-05-31T23:25:50.672Z,21.64
2018-05-31T23:26:50.643Z,21.58
2018-05-31T23:27:50.615Z,21.64
2018-05-31T23:28:50.575Z,21.57
2018-05-31T23:29:50.550Z,21.55
2018-05-31T23:30:50.519Z,21.66
2018-05-31T23:31:50.492Z,21.67
2018-05-31T23:32:50.461Z,21.62
2018-05-31T23:33:50.432Z,21.55
2018-05-31T23:34:50.409Z,21.54
2018-05-31T23:35:50.368Z,21.54
2018-05-31T23:36:50.340Z,21.62
2018-05-31T23:37:50.311Z,21.62
2018-05-31T23:38:50.279Z,21.60
2018-05-31T23:39:50.249Z,21.66
2018-05-31T23:40:50.212Z,21.60
2018-05-31T23:41:50.184Z,21.60
2018-05-31T23:42:50.161Z,21.50
2018-05-31T23:43:50.128Z,21.62
2018-05-31T23:44:50.099Z,21.54
2018-05-31T23:45:50.067Z,21.62
2018-05-31T23:46:50.037Z,21.54
2018-05-31T23:47:50.004Z,21.50
2018-05-31T23:48:49.971Z,21.60
2018-05-31T23:49:49.940Z,21.52
2018-05-31T23:50:49.914Z,21.55
2018-05-31T23:51:49.884Z,21.51
2018-05-31T23:52:49.854Z,21.40
2018-05-31T23:53:49.816Z,21.43
2018-05-31T23:54:49.791Z,21.45
2018-05-31T23:55:49.764Z,21.43
2018-05-31T23:56:49.733Z,21.42
2018-05-31T23:57:49.702Z,21.45
2018-05-31T23:58:49.674Z,21.39
2018-05-31T23:59:49.639Z,21.42
